createdAt,value
2019-05-06T00:02:01.390Z,53.90
2019-05-06T00:04:34.038Z,53.90
2019-05-06T00:07:04.974Z,53.90
2019-05-06T00:09:35.916Z,53.90
2019-05-06T00:12:06.829Z,54.10
2019-05-06T00:14:37.756Z,54.40
2019-05-06T00:17:08.932Z,54.30
2019-05-06T00:19:39.881Z,54.60
2019-05-06T00:22:10.815Z,54.60
2019-05-06T00:24:54.948Z,54.60
2019-05-06T00:27:34.107Z,54.60
2019-05-06T00:30:04.933Z,54.60
2019-05-06T00:32:35.929Z,54.60
2019-05-06T00:35:07.309Z,54.70
2019-05-06T00:37:38.166Z,55.00
2019-05-06T00:40:15.836Z,54.90
2019-05-06T00:43:06.680Z,54.90
2019-05-06T00:45:37.510Z,55.10
2019-05-06T00:48:08.223Z,55.10
2019-05-06T00:50:39.108Z,55.20
2019-05-06T00:53:14.067Z,55.20
2019-05-06T00:55:44.712Z,55.20
2019-05-06T00:58:16.670Z,55.20
2019-05-06T01:00:47.542Z,55.20
2019-05-06T01:03:18.367Z,55.30
2019-05-06T01:05:49.459Z,55.30
2019-05-06T01:08:20.261Z,55.40
2019-05-06T01:10:51.056Z,55.50
2019-05-06T01:13:30.969Z,55.60
2019-05-06T01:16:04.112Z,55.60
2019-05-06T01:18:34.477Z,55.60
2019-05-06T01:21:11.391Z,55.70
2019-05-06T01:23:44.005Z,55.80
2019-05-06T01:26:15.838Z,55.80
2019-05-06T01:28:46.784Z,55.80
2019-05-06T01:31:17.534Z,55.90
2019-05-06T01:33:48.488Z,55.90
2019-05-06T01:36:19.295Z,56.00
2019-05-06T01:39:20.931Z,56.00
2019-05-06T01:42:04.516Z,56.10
2019-05-06T01:44:35.443Z,56.00
2019-05-06T01:47:06.926Z,56.20
2019-05-06T01:49:37.961Z,56.30
2019-05-06T01:52:08.758Z,56.50
2019-05-06T01:54:39.610Z,56.40
2019-05-06T01:57:10.415Z,56.40
2019-05-06T01:59:41.261Z,56.50
2019-05-06T02:02:14.154Z,56.60
2019-05-06T02:04:44.580Z,56.60
2019-05-06T02:07:15.407Z,56.70
2019-05-06T02:09:46.297Z,56.70
2019-05-06T02:12:17.089Z,56.70
2019-05-06T02:14:47.877Z,56.80
2019-05-06T02:17:18.700Z,56.80
2019-05-06T02:19:49.473Z,56.80
2019-05-06T02:22:30.653Z,56.90
2019-05-06T02:25:06.584Z,57.00
2019-05-06T02:27:37.474Z,56.90
2019-05-06T02:30:25.705Z,57.60
2019-05-06T02:33:04.340Z,57.10
2019-05-06T02:35:39.590Z,57.20
2019-05-06T02:38:32.576Z,57.20
2019-05-06T02:40:56.978Z,57.40
2019-05-06T02:43:27.860Z,57.40
2019-05-06T02:45:59.333Z,57.50
2019-05-06T02:48:55.124Z,57.50
2019-05-06T02:51:27.803Z,57.60
2019-05-06T02:53:58.679Z,57.50
2019-05-06T02:56:33.423Z,57.60
2019-05-06T02:59:04.435Z,57.70
2019-05-06T03:01:35.268Z,57.70
2019-05-06T03:04:07.133Z,57.70
2019-05-06T03:06:38.261Z,57.80
2019-05-06T03:09:09.160Z,57.90
2019-05-06T03:11:39.946Z,57.90
2019-05-06T03:14:13.621Z,58.10
2019-05-06T03:16:44.103Z,58.00
2019-05-06T03:19:15.314Z,58.00
2019-05-06T03:22:08.148Z,57.90
2019-05-06T03:24:46.952Z,57.80
2019-05-06T03:27:17.825Z,57.70
2019-05-06T03:29:48.628Z,57.60
2019-05-06T03:32:25.240Z,57.70
2019-05-06T03:35:16.629Z,57.70
2019-05-06T03:37:24.566Z,57.70
2019-05-06T03:39:55.466Z,57.70
2019-05-06T03:42:26.716Z,57.70
2019-05-06T03:45:04.271Z,57.80
2019-05-06T03:47:47.975Z,57.90
2019-05-06T03:50:19.165Z,57.90
2019-05-06T03:52:50.342Z,57.90
2019-05-06T03:55:23.421Z,57.90
2019-05-06T03:57:56.052Z,58.00
2019-05-06T04:00:26.895Z,58.10
2019-05-06T04:02:57.763Z,58.10
2019-05-06T04:05:28.646Z,58.10
2019-05-06T04:08:03.626Z,58.00
2019-05-06T04:10:36.703Z,58.00
2019-05-06T04:13:06.955Z,58.00
2019-05-06T04:15:56.344Z,58.00
2019-05-06T04:18:28.371Z,58.10
2019-05-06T04:21:08.779Z,58.00
2019-05-06T04:23:57.890Z,58.10
2019-05-06T04:27:04.139Z,58.10
2019-05-06T04:29:35.596Z,58.10
2019-05-06T04:32:06.568Z,58.00
2019-05-06T04:34:37.899Z,58.10
2019-05-06T04:37:09.046Z,58.10
2019-05-06T04:39:43.265Z,58.10
2019-05-06T04:42:13.878Z,58.00
2019-05-06T04:44:45.022Z,58.00
2019-05-06T04:47:15.891Z,57.60
2019-05-06T04:49:47.022Z,57.40
2019-05-06T04:52:18.069Z,57.40
2019-05-06T04:54:48.838Z,57.30
2019-05-06T04:57:20.010Z,57.20
2019-05-06T04:59:53.967Z,57.20
2019-05-06T05:02:23.390Z,57.20
2019-05-06T05:04:54.513Z,57.20
2019-05-06T05:07:25.744Z,57.10
2019-05-06T05:10:07.815Z,57.20
2019-05-06T05:12:47.700Z,57.10
2019-05-06T05:15:43.249Z,57.10
2019-05-06T05:18:35.936Z,57.00
2019-05-06T05:21:06.786Z,56.90
2019-05-06T05:23:38.250Z,56.90
2019-05-06T05:26:11.988Z,56.80
2019-05-06T05:28:43.028Z,56.70
2019-05-06T05:31:14.245Z,56.60
2019-05-06T05:33:47.680Z,56.40
2019-05-06T05:36:18.799Z,56.10
2019-05-06T05:38:52.080Z,56.00
2019-05-06T05:41:23.333Z,55.90
2019-05-06T05:44:02.392Z,55.90
2019-05-06T05:46:33.417Z,55.90
2019-05-06T05:49:22.596Z,55.90
2019-05-06T05:51:54.471Z,55.90
2019-05-06T05:54:25.652Z,55.90
2019-05-06T05:56:56.822Z,55.80
2019-05-06T05:59:28.055Z,55.60
2019-05-06T06:01:59.011Z,55.50
2019-05-06T06:04:32.031Z,54.70
2019-05-06T06:07:02.889Z,54.80
2019-05-06T06:09:39.179Z,54.10
2019-05-06T06:12:11.943Z,53.90
2019-05-06T06:14:55.640Z,53.70
2019-05-06T06:17:37.886Z,53.10
2019-05-06T06:20:26.426Z,52.60
2019-05-06T06:23:00.403Z,51.80
2019-05-06T06:25:33.429Z,50.80
2019-05-06T06:28:04.180Z,50.10
2019-05-06T06:30:45.641Z,50.00
2019-05-06T06:33:16.802Z,49.90
2019-05-06T06:36:06.805Z,49.10
2019-05-06T06:39:12.479Z,47.90
2019-05-06T06:41:43.557Z,46.20
2019-05-06T06:44:17.574Z,45.60
2019-05-06T06:46:48.436Z,45.70
2019-05-06T06:49:19.416Z,45.60
2019-05-06T06:51:53.158Z,45.70
2019-05-06T06:54:24.160Z,43.00
2019-05-06T06:57:08.905Z,42.10
2019-05-06T06:59:48.400Z,41.40
2019-05-06T07:02:34.482Z,39.80
2019-05-06T07:05:25.503Z,38.60
2019-05-06T07:07:48.464Z,37.60
2019-05-06T07:10:36.772Z,36.10
2019-05-06T07:13:07.824Z,36.50
2019-05-06T07:15:38.752Z,35.80
2019-05-06T07:18:09.634Z,35.20
2019-05-06T07:20:58.615Z,36.20
2019-05-06T07:23:32.538Z,36.60
2019-05-06T07:26:03.161Z,36.70
2019-05-06T07:28:34.182Z,36.90
2019-05-06T07:31:20.678Z,36.80
2019-05-06T07:33:38.687Z,36.70
2019-05-06T07:36:09.527Z,36.50
2019-05-06T07:38:49.786Z,36.70
2019-05-06T07:41:29.637Z,36.80
2019-05-06T07:44:23.292Z,36.90
2019-05-06T07:47:04.751Z,37.00
2019-05-06T07:49:35.693Z,36.70
2019-05-06T07:52:06.581Z,36.60
2019-05-06T07:54:37.429Z,36.00
2019-05-06T07:57:08.303Z,36.00
2019-05-06T07:59:39.206Z,36.00
2019-05-06T08:02:10.045Z,36.20
2019-05-06T08:04:42.100Z,35.70
2019-05-06T08:07:13.060Z,35.60
2019-05-06T08:09:43.981Z,36.00
2019-05-06T08:12:15.036Z,36.90
2019-05-06T08:14:45.871Z,36.60
2019-05-06T08:17:22.651Z,37.00
2019-05-06T08:19:53.809Z,37.10
2019-05-06T08:22:45.728Z,37.60
2019-05-06T08:25:16.650Z,38.20
2019-05-06T08:27:49.503Z,38.60
2019-05-06T08:30:20.168Z,38.70
2019-05-06T08:32:52.886Z,38.60
2019-05-06T08:35:23.505Z,37.90
2019-05-06T08:37:54.628Z,38.20
2019-05-06T08:40:26.547Z,38.20
2019-05-06T08:42:57.571Z,38.60
2019-05-06T08:45:28.436Z,38.80
2019-05-06T08:47:59.423Z,39.20
2019-05-06T08:50:36.870Z,39.20
2019-05-06T08:53:26.965Z,39.50
2019-05-06T08:55:57.841Z,40.00
2019-05-06T08:58:47.638Z,40.20
2019-05-06T09:01:32.521Z,40.00
2019-05-06T09:04:11.368Z,40.10
2019-05-06T09:06:36.669Z,40.20
2019-05-06T09:09:09.240Z,40.40
2019-05-06T09:11:42.896Z,40.60
2019-05-06T09:14:13.911Z,40.30
2019-05-06T09:16:45.120Z,40.00
2019-05-06T09:19:16.038Z,39.60
2019-05-06T09:21:46.920Z,39.10
2019-05-06T09:24:18.078Z,39.40
2019-05-06T09:27:03.829Z,39.50
2019-05-06T09:29:45.033Z,39.50
2019-05-06T09:32:37.792Z,39.40
2019-05-06T09:35:09.617Z,39.40
2019-05-06T09:37:42.879Z,39.30
2019-05-06T09:40:13.360Z,39.10
2019-05-06T09:42:44.317Z,39.10
2019-05-06T09:45:15.814Z,38.90
2019-05-06T09:48:12.857Z,38.80
2019-05-06T09:50:46.605Z,38.30
2019-05-06T09:53:23.148Z,38.40
2019-05-06T09:56:18.925Z,39.20
2019-05-06T09:58:49.878Z,37.60
2019-05-06T10:01:22.507Z,37.80
2019-05-06T10:03:53.970Z,38.00
2019-05-06T10:06:24.913Z,38.00
2019-05-06T10:08:55.864Z,37.60
2019-05-06T10:11:26.743Z,37.10
2019-05-06T10:13:57.897Z,37.10
2019-05-06T10:16:28.975Z,37.10
2019-05-06T10:19:02.447Z,35.80
2019-05-06T10:21:32.646Z,35.60
2019-05-06T10:24:03.955Z,34.80
2019-05-06T10:26:39.685Z,33.80
2019-05-06T10:29:28.205Z,33.00
2019-05-06T10:32:36.181Z,32.10
2019-05-06T10:35:08.109Z,31.10
2019-05-06T10:37:49.649Z,29.30
2019-05-06T10:40:27.590Z,28.80
2019-05-06T10:43:11.448Z,29.20
2019-05-06T10:45:42.691Z,29.80
2019-05-06T10:48:13.710Z,30.70
2019-05-06T10:50:48.431Z,29.80
2019-05-06T10:53:23.006Z,30.10
2019-05-06T10:55:57.922Z,31.50
2019-05-06T10:58:28.855Z,32.80
2019-05-06T11:01:18.767Z,33.90
2019-05-06T11:03:49.760Z,34.60
2019-05-06T11:06:22.106Z,34.60
2019-05-06T11:08:53.311Z,33.40
2019-05-06T11:11:32.719Z,33.80
2019-05-06T11:13:56.874Z,34.60
2019-05-06T11:16:27.783Z,34.90
2019-05-06T11:18:59.040Z,34.80
2019-05-06T11:21:29.959Z,34.70
2019-05-06T11:24:00.952Z,34.30
2019-05-06T11:26:31.895Z,33.80
2019-05-06T11:29:07.594Z,33.20
2019-05-06T11:31:57.406Z,33.40
2019-05-06T11:34:58.957Z,33.00
2019-05-06T11:37:54.389Z,32.90
2019-05-06T11:40:24.620Z,33.20
2019-05-06T11:42:55.612Z,33.40
2019-05-06T11:45:26.490Z,32.90
2019-05-06T11:47:57.350Z,32.80
2019-05-06T11:50:28.211Z,32.90
2019-05-06T11:52:59.173Z,33.00
2019-05-06T11:55:34.425Z,33.20
2019-05-06T11:58:02.796Z,33.20
2019-05-06T12:00:38.010Z,33.40
2019-05-06T12:03:08.983Z,33.70
2019-05-06T12:05:41.844Z,33.90
2019-05-06T12:08:15.376Z,34.10
2019-05-06T12:10:45.463Z,34.50
2019-05-06T12:13:16.376Z,34.90
2019-05-06T12:15:47.993Z,35.10
2019-05-06T12:18:18.912Z,35.20
2019-05-06T12:20:52.619Z,35.10
2019-05-06T12:23:22.644Z,35.10
2019-05-06T12:25:53.569Z,35.10
2019-05-06T12:28:24.463Z,35.20
2019-05-06T12:30:55.468Z,35.30
2019-05-06T12:33:34.551Z,35.20
2019-05-06T12:36:22.404Z,35.10
2019-05-06T12:39:15.715Z,35.10
2019-05-06T12:42:16.006Z,34.90
2019-05-06T12:45:03.521Z,34.50
2019-05-06T12:47:56.509Z,34.10
2019-05-06T12:50:27.333Z,33.80
2019-05-06T12:52:58.204Z,33.50
2019-05-06T12:55:29.068Z,33.50
2019-05-06T12:57:59.967Z,33.30
2019-05-06T13:00:32.921Z,33.40
2019-05-06T13:03:04.030Z,33.20
2019-05-06T13:05:35.029Z,33.20
2019-05-06T13:08:06.778Z,33.20
2019-05-06T13:10:37.818Z,33.20
2019-05-06T13:13:09.218Z,33.40
2019-05-06T13:15:40.164Z,33.60
2019-05-06T13:18:11.233Z,33.80
2019-05-06T13:20:49.519Z,33.80
2019-05-06T13:23:39.525Z,33.80
2019-05-06T13:26:12.695Z,33.80
2019-05-06T13:28:47.123Z,34.50
2019-05-06T13:32:56.998Z,34.00
2019-05-06T13:33:55.752Z,33.80
2019-05-06T13:36:26.840Z,33.70
2019-05-06T13:39:13.358Z,33.60
2019-05-06T13:41:32.699Z,33.40
2019-05-06T13:44:14.841Z,33.10
2019-05-06T13:46:52.874Z,33.00
2019-05-06T13:49:42.819Z,33.00
2019-05-06T13:52:18.553Z,33.20
2019-05-06T13:54:49.790Z,33.40
2019-05-06T13:57:20.821Z,33.50
2019-05-06T13:59:53.253Z,33.50
2019-05-06T14:02:43.691Z,33.40
2019-05-06T14:05:15.641Z,33.20
2019-05-06T14:07:46.588Z,33.10
2019-05-06T14:10:17.444Z,32.90
2019-05-06T14:12:48.303Z,33.00
2019-05-06T14:15:19.483Z,33.00
2019-05-06T14:17:52.460Z,33.20
2019-05-06T14:20:23.147Z,33.00
2019-05-06T14:22:55.010Z,33.00
2019-05-06T14:25:43.578Z,33.20
2019-05-06T14:28:22.216Z,33.20
2019-05-06T14:30:56.798Z,33.30
2019-05-06T14:33:27.693Z,33.50
2019-05-06T14:35:58.596Z,33.60
2019-05-06T14:38:32.111Z,34.50
2019-05-06T14:41:26.727Z,34.10
2019-05-06T14:43:55.315Z,34.40
2019-05-06T14:46:33.140Z,34.60
2019-05-06T14:49:04.373Z,34.60
2019-05-06T14:51:35.461Z,34.70
2019-05-06T14:54:06.353Z,34.60
2019-05-06T14:56:50.058Z,34.60
2019-05-06T14:59:23.268Z,34.60
2019-05-06T15:01:53.888Z,34.50
2019-05-06T15:04:24.863Z,34.30
2019-05-06T15:06:55.858Z,34.20
2019-05-06T15:09:26.806Z,34.20
2019-05-06T15:11:58.222Z,34.20
2019-05-06T15:14:29.071Z,33.90
2019-05-06T15:17:02.043Z,34.10
2019-05-06T15:19:32.485Z,34.20
2019-05-06T15:22:03.381Z,34.20
2019-05-06T15:24:34.764Z,34.50
2019-05-06T15:27:05.777Z,34.50
2019-05-06T15:29:37.053Z,34.60
2019-05-06T15:32:19.424Z,34.70
2019-05-06T15:35:12.827Z,34.60
2019-05-06T15:38:09.488Z,34.60
2019-05-06T15:40:40.456Z,34.80
2019-05-06T15:43:12.722Z,35.00
2019-05-06T15:45:43.607Z,35.00
2019-05-06T15:48:14.507Z,35.10
2019-05-06T15:50:46.084Z,35.10
2019-05-06T15:53:16.971Z,35.30
2019-05-06T15:55:47.890Z,35.40
2019-05-06T15:58:18.779Z,35.50
2019-05-06T16:00:49.640Z,35.60
2019-05-06T16:03:22.616Z,35.70
2019-05-06T16:05:55.270Z,35.70
2019-05-06T16:08:25.804Z,35.80
2019-05-06T16:10:58.880Z,35.90
2019-05-06T16:13:29.468Z,36.00
2019-05-06T16:16:02.775Z,36.00
2019-05-06T16:18:33.140Z,36.10
2019-05-06T16:21:04.079Z,36.00
2019-05-06T16:23:42.296Z,36.00
2019-05-06T16:26:13.361Z,36.00
2019-05-06T16:28:44.955Z,36.00
2019-05-06T16:31:16.138Z,36.10
2019-05-06T16:33:47.146Z,36.10
2019-05-06T16:36:18.110Z,36.10
2019-05-06T16:38:49.119Z,36.20
2019-05-06T16:41:22.365Z,36.20
2019-05-06T16:43:52.804Z,36.30
2019-05-06T16:46:23.772Z,36.40
2019-05-06T16:48:54.744Z,36.30
2019-05-06T16:51:25.848Z,36.20
2019-05-06T16:53:56.882Z,36.20
2019-05-06T16:56:36.519Z,36.30
2019-05-06T16:59:07.613Z,36.30
2019-05-06T17:01:42.476Z,36.50
2019-05-06T17:04:23.048Z,36.60
2019-05-06T17:06:54.363Z,36.70
2019-05-06T17:09:27.697Z,36.70
2019-05-06T17:11:58.321Z,36.80
2019-05-06T17:14:29.334Z,37.00
2019-05-06T17:17:00.272Z,36.90
2019-05-06T17:19:32.428Z,36.90
2019-05-06T17:22:06.797Z,37.00
2019-05-06T17:24:37.709Z,37.10
2019-05-06T17:27:08.793Z,37.10
2019-05-06T17:30:01.504Z,37.30
2019-05-06T17:32:48.163Z,37.40
2019-05-06T17:35:19.215Z,38.00
2019-05-06T17:38:13.319Z,37.50
2019-05-06T17:40:44.400Z,37.50
2019-05-06T17:43:15.425Z,37.60
2019-05-06T17:46:02.354Z,37.80
2019-05-06T17:48:48.405Z,38.00
2019-05-06T17:51:22.520Z,38.20
2019-05-06T17:53:54.356Z,38.40
2019-05-06T17:56:25.488Z,38.50
2019-05-06T17:58:56.561Z,38.20
2019-05-06T18:01:46.341Z,38.50
2019-05-06T18:04:17.223Z,38.40
2019-05-06T18:06:48.510Z,38.50
2019-05-06T18:09:22.185Z,38.60
2019-05-06T18:11:58.888Z,38.40
2019-05-06T18:14:25.027Z,38.40
2019-05-06T18:16:55.928Z,38.60
2019-05-06T18:19:26.790Z,38.40
2019-05-06T18:21:57.731Z,38.70
2019-05-06T18:24:28.657Z,38.70
2019-05-06T18:26:59.808Z,38.80
2019-05-06T18:29:33.201Z,38.90
2019-05-06T18:32:03.907Z,39.70
2019-05-06T18:34:34.876Z,39.10
2019-05-06T18:37:05.748Z,39.00
2019-05-06T18:39:36.719Z,39.00
2019-05-06T18:42:16.769Z,39.00
2019-05-06T18:44:42.101Z,39.30
2019-05-06T18:47:12.652Z,39.40
2019-05-06T18:49:43.557Z,39.50
2019-05-06T18:52:14.693Z,39.70
2019-05-06T18:54:45.925Z,39.70
2019-05-06T18:57:16.883Z,39.80
2019-05-06T18:59:47.737Z,39.80
2019-05-06T19:02:19.228Z,40.00
2019-05-06T19:05:05.017Z,40.20
2019-05-06T19:07:35.933Z,40.00
2019-05-06T19:10:12.886Z,40.20
2019-05-06T19:12:43.813Z,40.30
2019-05-06T19:15:14.855Z,40.30
2019-05-06T19:17:45.661Z,40.50
2019-05-06T19:20:16.581Z,40.40
2019-05-06T19:22:47.454Z,40.50
2019-05-06T19:25:18.610Z,40.70
2019-05-06T19:27:49.467Z,40.70
2019-05-06T19:30:22.480Z,40.80
2019-05-06T19:32:53.470Z,40.90
2019-05-06T19:35:24.391Z,40.90
2019-05-06T19:37:55.348Z,41.00
2019-05-06T19:40:27.477Z,41.10
2019-05-06T19:42:58.687Z,41.10
2019-05-06T19:45:29.636Z,41.20
2019-05-06T19:48:02.693Z,41.30
2019-05-06T19:50:33.171Z,41.20
2019-05-06T19:53:04.044Z,41.40
2019-05-06T19:55:35.984Z,41.60
2019-05-06T19:58:06.866Z,42.20
2019-05-06T20:00:37.775Z,41.80
2019-05-06T20:03:08.755Z,41.80
2019-05-06T20:05:59.631Z,41.70
2019-05-06T20:08:38.041Z,41.90
2019-05-06T20:11:18.625Z,41.90
2019-05-06T20:13:49.421Z,41.90
2019-05-06T20:16:20.341Z,42.10
2019-05-06T20:18:52.615Z,42.50
2019-05-06T20:21:23.590Z,42.60
2019-05-06T20:23:54.423Z,42.80
2019-05-06T20:26:25.350Z,43.00
2019-05-06T20:28:56.206Z,43.20
2019-05-06T20:31:27.168Z,43.20
2019-05-06T20:33:57.968Z,43.30
2019-05-06T20:36:28.881Z,43.40
2019-05-06T20:38:59.776Z,43.60
2019-05-06T20:41:32.750Z,43.70
2019-05-06T20:44:03.430Z,43.90
2019-05-06T20:46:34.429Z,43.90
2019-05-06T20:49:05.370Z,44.00
2019-05-06T20:51:36.261Z,44.00
2019-05-06T20:54:07.224Z,44.20
2019-05-06T20:56:38.074Z,44.30
2019-05-06T20:59:08.970Z,44.50
2019-05-06T21:01:42.242Z,44.70
2019-05-06T21:04:13.168Z,44.80
2019-05-06T21:06:44.129Z,45.00
2019-05-06T21:09:15.030Z,45.10
2019-05-06T21:11:45.939Z,45.10
2019-05-06T21:14:16.831Z,45.30
2019-05-06T21:16:48.175Z,45.30
2019-05-06T21:19:19.507Z,45.30
2019-05-06T21:21:52.577Z,45.40
2019-05-06T21:24:24.483Z,45.50
2019-05-06T21:26:55.335Z,45.60
2019-05-06T21:29:26.307Z,45.70
2019-05-06T21:31:57.228Z,45.80
2019-05-06T21:34:28.105Z,45.80
2019-05-06T21:37:02.630Z,45.80
2019-05-06T21:39:33.061Z,45.70
2019-05-06T21:42:03.950Z,45.70
2019-05-06T21:44:34.824Z,45.80
2019-05-06T21:47:05.789Z,45.80
2019-05-06T21:49:36.963Z,45.70
2019-05-06T21:52:07.847Z,45.70
2019-05-06T21:54:38.703Z,45.80
2019-05-06T21:57:09.625Z,45.70
2019-05-06T21:59:42.613Z,45.70
2019-05-06T22:02:14.658Z,45.70
2019-05-06T22:04:45.580Z,46.40
2019-05-06T22:07:16.498Z,45.90
2019-05-06T22:09:47.393Z,46.00
2019-05-06T22:12:18.249Z,46.00
2019-05-06T22:14:49.077Z,46.20
2019-05-06T22:17:22.443Z,46.40
2019-05-06T22:19:53.473Z,47.00
2019-05-06T22:22:26.561Z,46.50
2019-05-06T22:24:58.049Z,46.60
2019-05-06T22:27:29.757Z,46.70
2019-05-06T22:30:03.028Z,46.80
2019-05-06T22:32:45.476Z,46.90
2019-05-06T22:35:17.248Z,46.90
2019-05-06T22:37:49.187Z,46.90
2019-05-06T22:40:23.482Z,47.00
2019-05-06T22:42:53.572Z,47.10
2019-05-06T22:45:24.485Z,47.10
2019-05-06T22:47:55.707Z,47.20
2019-05-06T22:50:26.601Z,47.50
2019-05-06T22:52:57.502Z,47.70
2019-05-06T22:55:28.415Z,47.80
2019-05-06T22:57:59.419Z,47.80
2019-05-06T23:00:33.251Z,48.00
2019-05-06T23:03:08.438Z,48.10
2019-05-06T23:05:39.214Z,48.30
2019-05-06T23:08:12.167Z,48.30
2019-05-06T23:10:42.487Z,48.40
2019-05-06T23:13:13.461Z,48.50
2019-05-06T23:15:44.262Z,48.60
2019-05-06T23:18:15.185Z,48.70
2019-05-06T23:20:46.425Z,48.80
2019-05-06T23:23:17.308Z,48.90
2019-05-06T23:26:07.082Z,49.00
2019-05-06T23:28:38.288Z,49.10
2019-05-06T23:31:09.110Z,49.10
2019-05-06T23:33:39.941Z,49.20
2019-05-06T23:36:12.095Z,49.30
2019-05-06T23:39:18.522Z,49.40
2019-05-06T23:42:24.969Z,49.50
2019-05-06T23:45:32.428Z,49.50
2019-05-06T23:48:38.873Z,49.60
2019-05-06T23:51:44.863Z,49.60
2019-05-06T23:54:52.266Z,49.80
2019-05-06T23:57:22.503Z,49.80
2019-05-06T23:59:54.654Z,49.90
